Airfield :
LOGIN :

Register | Disclaimer

   EN    FR    IT 

 










Legend :    VFR   Marginal VFR   IFR   Intensive IFR   Very Intensive IFR
Visi :
Ceiling :
>= 8 km
>= 3000ft
5 to 8 km
1000 to 3000 ft
1500m to 5 km
500 to 1000 ft
800 to 1500m
200 to 500 ft
< 800m
< 200 ft
Symbols :   Thunderstorms  Fog  Heavy snow  Heavy precipitations  Wind > 20 kt
SIGMETs :     Misc.  Thunderstorms  Icing  Turbulence  Mountain Waves  Volcanic Ashes






- Airport Elevation : 1071 ft
- IATA code : LWO


UKLL - L'viv

CURRENT METAR :
  • 030800Z 33002MPS 270V050 9999 FEW025 19/12 Q1018 R31/CLRD// NOSIG

EXPIRED METARs :
  • 030730Z 28002MPS 200V360 9999 FEW010 19/14 Q1017 R31/CLRD// NOSIG
  • 030700Z 29002MPS 9999 FEW010 18/13 Q1017 R31/CLRD// NOSIG
  • 030630Z 31002MPS 230V020 9999 FEW010 17/13 Q1017 R31/D NOSIG
  • 030600Z 29002MPS 240V330 9999 FEW010 16/13 Q1017 R31/CLRD// NOSIG
  • 030530Z 27003MPS 230V290 CAVOK 15/13 Q1017 R31/CLRD// NOSIG

TAF TAF UKLL
Valid from the 03 at 06:00 until the 04 at 06:00 UTC


030503Z 0306/0406 28004MPS 9999 BKN025 SCT030CB
TEMPO 0312/0319 VRB05G11MPS 5000 -SHRA BKN007 BKN020CB
BECMG 0319/0320 VRB01MPS 2100 BR SCT004 BKN007
TEMPO 0320/0404 16003MPS 0500 FG SCT002



MET'MAP, your aeronautical weather chart ! - Copyright ORBIFLY December 2007 - Disclaimer

ORBIFLY MET'MAP TEAM :

Programming & Development : Alexandra Zaïnal
Concept & original design : Baudouin d'Aumeries
Assistance for programming : Marc-Olivier Méhu
Technical & hardware support : Manuel Goepfert

Contact : metmap@orbifly.com




SOURCES & CREDITS :

   NOAA